createdAt,value
2018-07-21T00:01:16.167Z,20.56
2018-07-21T00:03:45.034Z,20.58
2018-07-21T00:06:14.160Z,20.54
2018-07-21T00:08:44.047Z,20.53
2018-07-21T00:11:13.264Z,20.53
2018-07-21T00:13:42.308Z,20.47
2018-07-21T00:16:11.075Z,20.43
2018-07-21T00:18:40.012Z,20.45
2018-07-21T00:21:09.054Z,20.45
2018-07-21T00:23:37.982Z,20.39
2018-07-21T00:26:07.424Z,20.40
2018-07-21T00:28:36.990Z,20.36
2018-07-21T00:31:06.194Z,20.31
2018-07-21T00:33:35.562Z,20.27
2018-07-21T00:36:04.689Z,20.22
2018-07-21T00:38:33.482Z,20.15
2018-07-21T00:41:02.520Z,20.14
2018-07-21T00:43:31.537Z,20.07
2018-07-21T00:46:00.358Z,20.09
2018-07-21T00:48:29.966Z,20.06
2018-07-21T00:50:58.866Z,20.03
2018-07-21T00:53:32.374Z,19.97
2018-07-21T00:56:02.474Z,20.02
2018-07-21T00:58:32.195Z,20.03
2018-07-21T01:01:01.447Z,20.00
2018-07-21T01:03:30.803Z,20.00
2018-07-21T01:05:59.776Z,19.99
2018-07-21T01:08:29.090Z,20.07
2018-07-21T01:10:57.992Z,20.07
2018-07-21T01:13:26.974Z,20.16
2018-07-21T01:15:56.105Z,20.08
2018-07-21T01:18:25.140Z,20.08
2018-07-21T01:20:54.676Z,20.11
2018-07-21T01:23:23.854Z,20.09
2018-07-21T01:25:53.265Z,20.08
2018-07-21T01:28:22.382Z,20.08
2018-07-21T01:30:52.021Z,20.13
2018-07-21T01:33:21.267Z,20.12
2018-07-21T01:35:50.290Z,20.08
2018-07-21T01:38:19.718Z,20.00
2018-07-21T01:40:48.814Z,19.93
2018-07-21T01:43:17.795Z,19.92
2018-07-21T01:45:46.790Z,19.94
2018-07-21T01:48:15.784Z,19.88
2018-07-21T01:50:44.735Z,19.88
2018-07-21T01:53:13.878Z,19.82
2018-07-21T01:55:42.864Z,19.79
2018-07-21T01:58:11.527Z,19.73
2018-07-21T02:00:40.680Z,19.64
2018-07-21T02:03:09.783Z,19.62
2018-07-21T02:05:38.769Z,19.59
2018-07-21T02:08:08.139Z,19.46
2018-07-21T02:10:37.326Z,19.43
2018-07-21T02:13:07.934Z,19.30
2018-07-21T02:15:36.976Z,19.26
2018-07-21T02:18:07.207Z,19.17
2018-07-21T02:20:37.196Z,19.17
2018-07-21T02:23:06.596Z,19.04
2018-07-21T02:25:36.291Z,18.92
2018-07-21T02:28:05.105Z,18.83
2018-07-21T02:30:34.768Z,18.76
2018-07-21T02:33:04.320Z,18.69
2018-07-21T02:35:33.135Z,18.62
2018-07-21T02:38:02.358Z,18.61
2018-07-21T02:40:31.388Z,18.55
2018-07-21T02:43:00.813Z,18.62
2018-07-21T02:45:29.814Z,18.58
2018-07-21T02:47:59.614Z,18.52
2018-07-21T02:50:28.803Z,18.50
2018-07-21T02:52:58.694Z,18.56
2018-07-21T02:55:27.936Z,18.58
2018-07-21T02:57:56.840Z,18.56
2018-07-21T03:00:25.984Z,18.33
2018-07-21T03:02:55.227Z,18.40
2018-07-21T03:05:24.091Z,18.28
2018-07-21T03:07:53.355Z,18.21
2018-07-21T03:10:22.422Z,18.01
2018-07-21T03:12:51.398Z,18.00
2018-07-21T03:15:20.663Z,17.96
2018-07-21T03:17:49.588Z,17.94
2018-07-21T03:20:18.903Z,17.85
2018-07-21T03:22:48.631Z,17.90
2018-07-21T03:25:17.720Z,18.18
2018-07-21T03:27:47.366Z,18.59
2018-07-21T03:30:16.559Z,19.06
2018-07-21T03:32:45.507Z,19.43
2018-07-21T03:35:14.717Z,19.92
2018-07-21T03:37:43.612Z,20.38
2018-07-21T03:40:13.011Z,20.83
2018-07-21T03:42:42.007Z,21.19
2018-07-21T03:45:11.319Z,21.68
2018-07-21T03:47:40.182Z,22.06
2018-07-21T03:50:09.520Z,22.62
2018-07-21T03:52:39.381Z,23.04
2018-07-21T03:55:08.344Z,23.54
2018-07-21T03:57:37.196Z,23.97
2018-07-21T04:00:07.176Z,24.36
2018-07-21T04:02:36.440Z,24.66
2018-07-21T04:05:05.339Z,25.04
2018-07-21T04:07:34.323Z,25.43
2018-07-21T04:10:03.299Z,25.82
2018-07-21T04:12:32.398Z,26.22
2018-07-21T04:15:01.442Z,26.90
2018-07-21T04:17:30.483Z,27.08
2018-07-21T04:19:59.530Z,26.71
2018-07-21T04:22:28.938Z,26.82
2018-07-21T04:24:58.155Z,27.54
2018-07-21T04:27:27.153Z,28.05
2018-07-21T04:29:56.227Z,28.48
2018-07-21T04:32:26.084Z,28.50
2018-07-21T04:34:54.884Z,29.11
2018-07-21T04:37:24.521Z,29.43
2018-07-21T04:39:53.577Z,29.76
2018-07-21T04:42:22.645Z,30.03
2018-07-21T04:44:51.876Z,30.86
2018-07-21T04:47:20.782Z,31.38
2018-07-21T04:49:50.382Z,31.39
2018-07-21T04:52:20.725Z,31.83
2018-07-21T04:54:49.612Z,31.81
2018-07-21T04:57:18.402Z,32.43
2018-07-21T04:59:47.841Z,32.67
2018-07-21T05:02:16.718Z,33.13
2018-07-21T05:04:45.884Z,32.96
2018-07-21T05:07:15.215Z,33.19
2018-07-21T05:09:44.383Z,33.47
2018-07-21T05:12:13.907Z,33.71
2018-07-21T05:14:43.109Z,34.01
2018-07-21T05:17:12.208Z,34.04
2018-07-21T05:19:40.967Z,34.24
2018-07-21T05:22:10.194Z,34.31
2018-07-21T05:24:39.277Z,34.60
2018-07-21T05:27:08.271Z,34.57
2018-07-21T05:29:37.285Z,34.28
2018-07-21T05:32:06.147Z,34.13
2018-07-21T05:34:35.151Z,34.34
2018-07-21T05:37:05.106Z,34.49
2018-07-21T05:39:34.264Z,35.14
2018-07-21T05:42:03.306Z,34.82
2018-07-21T05:44:32.467Z,34.91
2018-07-21T05:47:01.463Z,34.73
2018-07-21T05:49:30.669Z,34.70
2018-07-21T05:51:59.670Z,34.83
2018-07-21T05:54:28.775Z,34.62
2018-07-21T05:56:57.855Z,35.15
2018-07-21T05:59:27.077Z,35.00
2018-07-21T06:01:56.465Z,35.44
2018-07-21T06:04:25.357Z,35.51
2018-07-21T06:06:54.289Z,35.50
2018-07-21T06:09:23.380Z,35.48
2018-07-21T06:11:52.215Z,36.12
2018-07-21T06:14:21.550Z,36.45
2018-07-21T06:16:50.590Z,36.64
2018-07-21T06:19:19.495Z,36.74
2018-07-21T06:21:48.863Z,37.20
2018-07-21T06:24:17.778Z,38.03
2018-07-21T06:26:46.851Z,37.89
2018-07-21T06:29:16.710Z,37.72
2018-07-21T06:31:45.683Z,37.14
2018-07-21T06:34:14.524Z,36.54
2018-07-21T06:36:43.808Z,37.63
2018-07-21T06:39:13.492Z,37.96
2018-07-21T06:41:43.833Z,37.78
2018-07-21T06:44:12.871Z,37.85
2018-07-21T06:46:42.042Z,37.29
2018-07-21T06:49:11.015Z,36.13
2018-07-21T06:51:40.553Z,36.78
2018-07-21T06:54:10.169Z,37.63
2018-07-21T06:56:39.185Z,37.02
2018-07-21T06:59:08.417Z,37.21
2018-07-21T07:01:38.271Z,37.42
2018-07-21T07:04:09.482Z,36.52
2018-07-21T07:06:38.933Z,37.58
2018-07-21T07:09:10.721Z,36.98
2018-07-21T07:11:41.409Z,37.90
2018-07-21T07:14:10.618Z,37.71
2018-07-21T07:16:39.603Z,38.48
2018-07-21T07:19:08.831Z,38.57
2018-07-21T07:21:38.267Z,37.53
2018-07-21T07:24:06.972Z,37.74
2018-07-21T07:26:36.475Z,37.52
2018-07-21T07:29:05.735Z,36.74
2018-07-21T07:31:34.754Z,37.15
2018-07-21T07:34:04.095Z,37.66
2018-07-21T07:36:33.378Z,36.58
2018-07-21T07:39:02.696Z,37.00
2018-07-21T07:41:32.283Z,37.44
2018-07-21T07:44:01.575Z,37.47
2018-07-21T07:46:30.684Z,37.89
2018-07-21T07:49:00.264Z,37.93
2018-07-21T07:51:29.424Z,38.04
2018-07-21T07:53:58.259Z,35.27
2018-07-21T07:56:27.872Z,35.33
2018-07-21T07:58:56.955Z,36.05
2018-07-21T08:01:26.116Z,35.64
2018-07-21T08:03:55.409Z,35.74
2018-07-21T08:06:24.899Z,34.78
2018-07-21T08:08:53.958Z,34.12
2018-07-21T08:11:23.546Z,34.84
2018-07-21T08:13:52.442Z,35.38
2018-07-21T08:16:21.320Z,34.90
2018-07-21T08:18:51.011Z,34.91
2018-07-21T08:21:19.855Z,33.77
2018-07-21T08:23:48.583Z,33.20
2018-07-21T08:26:18.023Z,32.93
2018-07-21T08:28:47.255Z,32.42
2018-07-21T08:31:16.611Z,32.53
2018-07-21T08:33:45.889Z,32.67
2018-07-21T08:36:14.977Z,32.52
2018-07-21T08:38:44.128Z,33.60
2018-07-21T08:41:13.389Z,33.93
2018-07-21T08:43:42.555Z,34.42
2018-07-21T08:46:11.575Z,34.30
2018-07-21T08:48:40.855Z,35.38
2018-07-21T08:51:09.816Z,34.99
2018-07-21T08:53:38.767Z,34.77
2018-07-21T08:56:08.295Z,34.63
2018-07-21T08:58:37.215Z,35.33
2018-07-21T09:01:06.106Z,35.33
2018-07-21T09:03:36.329Z,34.35
2018-07-21T09:06:05.324Z,34.75
2018-07-21T09:08:34.226Z,33.56
2018-07-21T09:11:03.144Z,31.82
2018-07-21T09:13:32.590Z,31.76
2018-07-21T09:16:01.604Z,31.80
2018-07-21T09:18:30.631Z,31.70
2018-07-21T09:20:59.429Z,31.76
2018-07-21T09:23:28.368Z,31.57
2018-07-21T09:25:58.105Z,31.71
2018-07-21T09:28:27.166Z,31.77
2018-07-21T09:30:56.027Z,31.07
2018-07-21T09:33:25.364Z,31.21
2018-07-21T09:35:54.242Z,31.47
2018-07-21T09:38:23.546Z,31.63
2018-07-21T09:40:52.530Z,31.32
2018-07-21T09:43:21.953Z,30.86
2018-07-21T09:45:51.028Z,30.90
2018-07-21T09:48:20.343Z,31.15
2018-07-21T09:50:49.279Z,31.36
2018-07-21T09:53:18.264Z,31.40
2018-07-21T09:55:47.534Z,31.76
2018-07-21T09:58:16.465Z,31.66
2018-07-21T10:00:50.796Z,31.05
2018-07-21T10:03:21.678Z,30.02
2018-07-21T10:05:50.946Z,29.80
2018-07-21T10:08:20.003Z,29.94
2018-07-21T10:10:48.858Z,29.95
2018-07-21T10:13:18.147Z,30.36
2018-07-21T10:15:47.174Z,30.55
2018-07-21T10:18:16.064Z,30.65
2018-07-21T10:20:45.158Z,29.57
2018-07-21T10:23:14.475Z,29.36
2018-07-21T10:25:48.520Z,29.37
2018-07-21T10:28:22.732Z,29.32
2018-07-21T10:30:51.566Z,28.99
2018-07-21T10:33:20.856Z,28.68
2018-07-21T10:35:50.108Z,28.87
2018-07-21T10:38:18.940Z,28.93
2018-07-21T10:40:48.115Z,29.09
2018-07-21T10:43:17.879Z,29.29
2018-07-21T10:45:46.858Z,29.17
2018-07-21T10:48:16.243Z,29.02
2018-07-21T10:50:46.186Z,29.12
2018-07-21T10:53:14.839Z,29.14
2018-07-21T10:55:43.748Z,29.32
2018-07-21T10:58:14.087Z,29.34
2018-07-21T11:00:44.187Z,29.05
2018-07-21T11:03:13.249Z,28.88
2018-07-21T11:05:42.416Z,28.70
2018-07-21T11:08:11.820Z,28.69
2018-07-21T11:13:09.012Z,29.18
2018-07-21T11:15:38.064Z,29.02
2018-07-21T11:18:07.046Z,29.16
2018-07-21T11:20:36.264Z,29.51
2018-07-21T11:23:05.540Z,29.58
2018-07-21T11:25:34.527Z,29.28
2018-07-21T11:28:03.880Z,29.07
2018-07-21T11:30:32.790Z,28.90
2018-07-21T11:33:01.946Z,28.78
2018-07-21T11:35:31.247Z,29.12
2018-07-21T11:38:00.097Z,29.50
2018-07-21T11:40:29.107Z,29.81
2018-07-21T11:42:58.331Z,29.74
2018-07-21T11:45:27.729Z,29.68
2018-07-21T11:47:56.916Z,29.74
2018-07-21T11:50:25.855Z,29.68
2018-07-21T11:52:54.619Z,29.65
2018-07-21T11:55:23.677Z,29.66
2018-07-21T11:57:53.379Z,29.77
2018-07-21T12:00:22.405Z,29.77
2018-07-21T12:02:51.477Z,29.66
2018-07-21T12:05:20.780Z,29.66
2018-07-21T12:07:49.675Z,29.32
2018-07-21T12:10:18.568Z,29.21
2018-07-21T12:12:47.451Z,29.23
2018-07-21T12:15:17.066Z,28.84
2018-07-21T12:17:46.076Z,28.65
2018-07-21T12:20:15.546Z,28.80
2018-07-21T12:22:44.552Z,29.05
2018-07-21T12:25:13.251Z,29.31
2018-07-21T12:27:42.180Z,29.48
2018-07-21T12:30:10.911Z,29.68
2018-07-21T12:32:39.616Z,29.46
2018-07-21T12:35:08.753Z,29.75
2018-07-21T12:37:37.709Z,29.98
2018-07-21T12:40:06.668Z,30.13
2018-07-21T12:42:36.030Z,30.23
2018-07-21T12:45:05.121Z,29.97
2018-07-21T12:47:34.210Z,29.61
2018-07-21T12:50:03.634Z,29.55
2018-07-21T12:52:32.535Z,29.74
2018-07-21T12:55:01.347Z,29.68
2018-07-21T12:57:30.284Z,29.72
2018-07-21T12:59:59.366Z,29.70
2018-07-21T13:02:30.180Z,29.89
2018-07-21T13:04:59.219Z,29.86
2018-07-21T13:07:28.038Z,30.08
2018-07-21T13:09:57.672Z,30.09
2018-07-21T13:12:26.895Z,30.15
2018-07-21T13:14:56.279Z,30.08
2018-07-21T13:17:25.443Z,30.14
2018-07-21T13:19:54.169Z,30.14
2018-07-21T13:22:23.116Z,30.19
2018-07-21T13:24:52.215Z,30.21
2018-07-21T13:27:21.035Z,30.08
2018-07-21T13:29:50.349Z,30.22
2018-07-21T13:32:19.436Z,30.23
2018-07-21T13:34:48.156Z,30.28
2018-07-21T13:37:17.445Z,30.27
2018-07-21T13:39:46.531Z,30.15
2018-07-21T13:42:15.432Z,30.16
2018-07-21T13:44:44.616Z,30.08
2018-07-21T13:47:13.287Z,30.16
2018-07-21T13:49:43.100Z,30.04
2018-07-21T13:52:12.536Z,30.22
2018-07-21T13:54:41.715Z,30.24
2018-07-21T13:57:10.475Z,30.07
2018-07-21T13:59:39.527Z,30.02
2018-07-21T14:02:08.752Z,29.87
2018-07-21T14:04:37.499Z,29.62
2018-07-21T14:07:07.299Z,29.42
2018-07-21T14:09:36.026Z,29.47
2018-07-21T14:12:05.906Z,29.62
2018-07-21T14:14:35.435Z,29.70
2018-07-21T14:17:04.285Z,29.80
2018-07-21T14:19:33.268Z,29.92
2018-07-21T14:22:02.304Z,29.87
2018-07-21T14:24:31.278Z,29.83
2018-07-21T14:27:00.414Z,29.73
2018-07-21T14:29:29.885Z,29.83
2018-07-21T14:31:59.011Z,29.89
2018-07-21T14:34:28.331Z,29.91
2018-07-21T14:36:57.211Z,29.78
2018-07-21T14:39:27.107Z,29.68
2018-07-21T14:41:56.732Z,29.75
2018-07-21T14:44:26.452Z,29.63
2018-07-21T14:46:56.019Z,29.66
2018-07-21T14:49:25.311Z,29.63
2018-07-21T14:51:54.840Z,29.57
2018-07-21T14:54:23.658Z,29.55
2018-07-21T14:56:52.943Z,29.53
2018-07-21T14:59:22.116Z,29.59
2018-07-21T15:01:51.110Z,29.49
2018-07-21T15:04:20.229Z,29.40
2018-07-21T15:06:49.146Z,29.60
2018-07-21T15:09:18.305Z,29.57
2018-07-21T15:11:48.232Z,29.58
2018-07-21T15:14:17.127Z,29.56
2018-07-21T15:16:46.474Z,29.44
2018-07-21T15:19:15.680Z,29.36
2018-07-21T15:21:44.727Z,29.48
2018-07-21T15:24:13.583Z,29.44
2018-07-21T15:26:43.059Z,29.54
2018-07-21T15:29:11.994Z,29.32
2018-07-21T15:31:41.739Z,29.25
2018-07-21T15:34:10.790Z,29.26
2018-07-21T15:36:39.707Z,29.45
2018-07-21T15:39:09.657Z,29.43
2018-07-21T15:41:39.147Z,29.41
2018-07-21T15:44:08.555Z,29.29
2018-07-21T15:46:38.037Z,29.25
2018-07-21T15:49:07.675Z,29.24
2018-07-21T15:51:36.942Z,29.17
2018-07-21T15:54:06.067Z,29.08
2018-07-21T15:56:35.694Z,29.10
2018-07-21T15:59:04.747Z,28.97
2018-07-21T16:01:33.873Z,29.05
2018-07-21T16:04:03.075Z,29.03
2018-07-21T16:06:31.928Z,29.03
2018-07-21T16:09:00.961Z,28.96
2018-07-21T16:11:29.967Z,28.98
2018-07-21T16:13:59.419Z,28.82
2018-07-21T16:16:28.507Z,28.88
2018-07-21T16:18:58.357Z,28.79
2018-07-21T16:21:28.200Z,28.82
2018-07-21T16:23:57.991Z,28.68
2018-07-21T16:26:27.195Z,28.67
2018-07-21T16:28:55.965Z,28.65
2018-07-21T16:31:25.991Z,28.53
2018-07-21T16:33:55.807Z,28.34
2018-07-21T16:36:25.325Z,28.38
2018-07-21T16:38:54.398Z,28.29
2018-07-21T16:41:24.162Z,28.28
2018-07-21T16:43:53.009Z,28.24
2018-07-21T16:46:23.079Z,28.00
2018-07-21T16:48:52.263Z,28.06
2018-07-21T16:51:21.214Z,27.99
2018-07-21T16:53:49.987Z,27.83
2018-07-21T16:56:19.142Z,27.76
2018-07-21T16:58:48.812Z,27.73
2018-07-21T17:01:17.618Z,27.61
2018-07-21T17:03:46.545Z,27.55
2018-07-21T17:06:15.491Z,27.49
2018-07-21T17:08:44.716Z,27.38
2018-07-21T17:11:14.062Z,27.30
2018-07-21T17:13:42.986Z,27.36
2018-07-21T17:16:12.079Z,27.23
2018-07-21T17:18:41.995Z,27.19
2018-07-21T17:21:11.014Z,27.07
2018-07-21T17:23:40.432Z,27.00
2018-07-21T17:26:09.723Z,26.86
2018-07-21T17:28:39.274Z,26.73
2018-07-21T17:31:08.315Z,26.66
2018-07-21T17:33:37.203Z,26.57
2018-07-21T17:36:06.301Z,26.42
2018-07-21T17:38:35.393Z,26.33
2018-07-21T17:41:04.880Z,26.25
2018-07-21T17:43:33.788Z,26.18
2018-07-21T17:46:03.068Z,26.08
2018-07-21T17:48:32.116Z,25.98
2018-07-21T17:51:01.088Z,25.92
2018-07-21T17:53:30.919Z,25.79
2018-07-21T17:56:00.208Z,25.77
2018-07-21T17:58:29.100Z,25.66
2018-07-21T18:00:58.182Z,25.53
2018-07-21T18:03:27.436Z,25.46
2018-07-21T18:05:56.384Z,25.40
2018-07-21T18:08:25.365Z,25.40
2018-07-21T18:10:54.769Z,25.38
2018-07-21T18:13:23.768Z,25.35
2018-07-21T18:15:52.563Z,25.17
2018-07-21T18:18:21.814Z,25.06
2018-07-21T18:20:50.837Z,25.01
2018-07-21T18:23:19.708Z,24.94
2018-07-21T18:25:49.856Z,24.88
2018-07-21T18:28:18.695Z,24.79
2018-07-21T18:30:47.494Z,24.65
2018-07-21T18:33:16.760Z,24.71
2018-07-21T18:35:45.615Z,24.62
2018-07-21T18:38:16.019Z,24.47
2018-07-21T18:40:44.959Z,24.40
2018-07-21T18:43:13.911Z,24.33
2018-07-21T18:45:42.655Z,24.34
2018-07-21T18:48:12.476Z,24.34
2018-07-21T18:50:42.083Z,24.32
2018-07-21T18:53:10.913Z,24.32
2018-07-21T18:55:40.030Z,24.22
2018-07-21T18:58:09.034Z,24.20
2018-07-21T19:00:38.280Z,24.20
2018-07-21T19:03:07.221Z,24.18
2018-07-21T19:05:36.029Z,24.11
2018-07-21T19:08:05.952Z,24.04
2018-07-21T19:10:35.230Z,24.01
2018-07-21T19:13:04.300Z,23.95
2018-07-21T19:15:38.935Z,23.96
2018-07-21T19:18:07.911Z,23.90
2018-07-21T19:20:42.429Z,23.86
2018-07-21T19:23:11.435Z,23.86
2018-07-21T19:25:45.855Z,23.90
2018-07-21T19:28:14.762Z,23.85
2018-07-21T19:30:43.855Z,23.80
2018-07-21T19:33:13.263Z,23.73
2018-07-21T19:35:42.435Z,23.66
2018-07-21T19:38:11.240Z,23.61
2018-07-21T19:40:40.650Z,23.59
2018-07-21T19:43:09.319Z,23.63
2018-07-21T19:45:38.367Z,23.61
2018-07-21T19:48:07.386Z,23.52
2018-07-21T19:50:36.613Z,23.46
2018-07-21T19:53:05.790Z,23.39
2018-07-21T19:55:34.927Z,23.40
2018-07-21T19:58:04.072Z,23.24
2018-07-21T20:00:32.820Z,23.15
2018-07-21T20:03:02.631Z,23.12
2018-07-21T20:05:31.425Z,23.11
2018-07-21T20:08:00.615Z,23.09
2018-07-21T20:10:29.519Z,23.08
2018-07-21T20:12:58.575Z,23.12
2018-07-21T20:15:27.607Z,23.09
2018-07-21T20:17:57.447Z,23.15
2018-07-21T20:20:26.503Z,23.11
2018-07-21T20:22:55.621Z,23.08
2018-07-21T20:25:24.649Z,22.98
2018-07-21T20:27:53.913Z,22.86
2018-07-21T20:30:23.106Z,22.86
2018-07-21T20:32:52.902Z,22.76
2018-07-21T20:35:22.627Z,22.66
2018-07-21T20:37:51.418Z,22.67
2018-07-21T20:40:20.333Z,22.65
2018-07-21T20:42:49.507Z,22.68
2018-07-21T20:45:18.599Z,22.65
2018-07-21T20:47:47.732Z,22.58
2018-07-21T20:50:16.783Z,22.58
2018-07-21T20:52:45.654Z,22.58
2018-07-21T20:55:14.508Z,22.52
2018-07-21T20:57:43.584Z,22.30
2018-07-21T21:00:12.694Z,22.17
2018-07-21T21:02:41.608Z,22.09
2018-07-21T21:05:10.524Z,22.07
2018-07-21T21:07:39.251Z,21.99
2018-07-21T21:10:08.437Z,21.91
2018-07-21T21:12:37.494Z,21.95
2018-07-21T21:15:08.220Z,21.98
2018-07-21T21:17:37.530Z,22.02
2018-07-21T21:20:06.479Z,21.98
2018-07-21T21:22:35.299Z,21.92
2018-07-21T21:25:05.208Z,21.84
2018-07-21T21:27:34.267Z,21.69
2018-07-21T21:30:03.131Z,21.55
2018-07-21T21:32:32.471Z,21.49
2018-07-21T21:35:01.258Z,21.47
2018-07-21T21:37:30.323Z,21.47
2018-07-21T21:39:59.887Z,21.51
2018-07-21T21:42:28.751Z,21.53
2018-07-21T21:44:58.252Z,21.53
2018-07-21T21:47:27.076Z,21.57
2018-07-21T21:49:55.919Z,21.53
2018-07-21T21:52:24.954Z,21.56
2018-07-21T21:54:54.044Z,21.57
2018-07-21T21:57:22.813Z,21.45
2018-07-21T21:59:51.799Z,21.38
2018-07-21T22:02:20.836Z,21.28
2018-07-21T22:04:49.813Z,21.23
2018-07-21T22:07:18.792Z,21.20
2018-07-21T22:09:47.915Z,21.22
2018-07-21T22:12:16.974Z,21.19
2018-07-21T22:14:45.986Z,21.18
2018-07-21T22:17:15.026Z,21.18
2018-07-21T22:19:43.975Z,21.15
2018-07-21T22:22:18.049Z,21.12
2018-07-21T22:24:47.800Z,21.06
2018-07-21T22:27:16.910Z,21.10
2018-07-21T22:29:46.230Z,21.12
2018-07-21T22:32:15.090Z,21.15
2018-07-21T22:34:43.993Z,21.16
2018-07-21T22:37:13.209Z,21.01
2018-07-21T22:39:42.003Z,21.01
2018-07-21T22:42:10.826Z,21.03
2018-07-21T22:44:40.999Z,20.88
2018-07-21T22:47:10.080Z,20.93
2018-07-21T22:49:39.074Z,20.83
2018-07-21T22:52:08.403Z,20.71
2018-07-21T22:54:37.266Z,20.70
2018-07-21T22:57:06.060Z,20.66
2018-07-21T22:59:35.255Z,20.63
2018-07-21T23:02:03.933Z,20.55
2018-07-21T23:04:32.851Z,20.47
2018-07-21T23:07:01.951Z,20.38
2018-07-21T23:09:30.836Z,20.40
2018-07-21T23:11:59.933Z,20.35
2018-07-21T23:14:29.147Z,20.29
2018-07-21T23:16:57.895Z,20.25
2018-07-21T23:19:27.004Z,20.24
2018-07-21T23:21:56.136Z,20.25
2018-07-21T23:24:24.978Z,20.23
2018-07-21T23:26:53.855Z,20.31
2018-07-21T23:29:23.191Z,20.36
2018-07-21T23:31:52.028Z,20.33
2018-07-21T23:34:20.864Z,20.27
2018-07-21T23:36:50.227Z,20.21
2018-07-21T23:39:21.606Z,20.13
2018-07-21T23:41:50.838Z,20.06
2018-07-21T23:44:20.025Z,20.04
2018-07-21T23:46:48.920Z,20.05
2018-07-21T23:49:17.948Z,20.03
2018-07-21T23:51:47.754Z,19.91
2018-07-21T23:54:16.828Z,19.90
2018-07-21T23:56:46.295Z,19.86
2018-07-21T23:59:15.323Z,19.76
